首页
METAR-TAF:

METAR-TAF

机场 :

Saint Thomas, 美屬維爾京群島

纬度: 18-20N, 经度: 064-59W, 海拔: 7米

当前天气观测

该预报发布于31分钟前的09:53 UTC
风速11节,风向
温度
气压 1013 hPa
能見度: 16.1公里

METAR: TIST 220953Z 09011KT 10SM A2992 RMK AO2 SLP134 $

时间: 06:24 (10:24 UTC)

预报

该预报发布于5小时和4分钟前的05:20 UTC
预报有效从22日的 06点(UTC)到 23日的 06点(UTC)
风速9节,风向
能見度: 10公里
少量云层高于1800英尺
散云层高于3000英尺
多云层高于4000英尺
小阵雨
从 22日的 1300点(UTC)
风速12节,风向东转东南
能見度: 10公里
散云层高于3000英尺, 积雨云.
多云层高于5000英尺
附近有雷暴
从 22日的 2000点(UTC)
风速9节,风向东转东南
能見度: 10公里
散云层高于2500英尺
多云层高于3500英尺
多云层高于5000英尺
附近有阵雨,

TAF: TIST 220520Z 2206/2306 08009KT P6SM -SHRA FEW018 SCT030 BKN040 FM221300 12012KT P6SM VCTS SCT030CB BKN050 FM222000 12009KT P6SM VCSH SCT025 BKN035 BKN050

超过4000个机场的气象观测和天气预报(METAR&TAF报告)。

可查询的气象台以黄色和红色小点在地图上表示。

将鼠标移到小点上方,可查看气象台名称。

然后点击查看天气观测和预报。

如需切换地图:点击带黑十字的绿色按钮放大地图;点击带横线的绿色按钮缩小地图;或者点击绿色箭头查看邻近地区的地图。


METAR-TAF: